John Oxley 2 — 7572QC — position and weather

sailwx.info

Track history (hours):
 
Tides and Currents Weather Stations Pressure Air Temp Water Temp Dewpoint Dewpoint Depression Visibility Wind Speed Wind Dir Waves Ship Positions

John Oxley 2

Last reported at 2018-Jul-18 00:09 UTC. Time now 2018-Jul-18 02:22 UTC.
Position S 27°19' E 153°12'.

Length 79 m.

MMSI: 503774000.

Date/timePositionNaut miles runAvg speedWind from/ knotsBaromVisibWave heightAir tempDewpointWater temp
2018-Jul-18 00:09S 27°19' E 153°12'2 6.6
2018-Jul-17 23:55S 27°17' E 153°12'3 6.9
2018-Jul-17 23:30S 27°14' E 153°13'3 6.7
2018-Jul-17 23:00S 27°11' E 153°14'3 6.9
2018-Jul-17 22:30S 27°08' E 153°16'4 6.3
2018-Jul-17 21:54S 27°05' E 153°18'3 6.2
2018-Jul-17 21:29S 27°03' E 153°16'0 0.3
2018-Jul-17 21:00S 27°03' E 153°16'0 0.0
2018-Jul-17 20:31S 27°03' E 153°16'0 0.0
2018-Jul-17 19:59S 27°03' E 153°16'0 0.0
2018-Jul-17 19:30S 27°03' E 153°16'0 0.0
2018-Jul-17 19:00S 27°03' E 153°16'0 0.0
2018-Jul-17 18:31S 27°03' E 153°16'0 0.0
2018-Jul-17 18:01S 27°03' E 153°16'3 6.0
2018-Jul-17 17:30S 27°05' E 153°18'5 9.1
2018-Jul-17 17:00S 27°10' E 153°20'4 8.4
2018-Jul-17 16:30S 27°13' E 153°17'4 7.7
2018-Jul-17 16:00S 27°16' E 153°15'4 7.5
2018-Jul-17 15:30S 27°19' E 153°12'4 7.3
2018-Jul-17 15:00S 27°22' E 153°10'5 1.0
2018-Jul-17 09:33S 27°27' E 153°06'3 7.7
2018-Jul-17 09:11S 27°27' E 153°03'1 1.4
2018-Jul-17 08:49S 27°27' E 153°03'0 0.0
2018-Jul-17 08:25S 27°27' E 153°03'0 0.0
2018-Jul-17 07:38S 27°27' E 153°03'0 0.0
2018-Jul-17 07:29S 27°27' E 153°03'7 0.9
2018-Jul-16 23:30S 27°23' E 153°09'7 6.8
2018-Jul-16 22:29S 27°17' E 153°13'3 6.9
2018-Jul-16 22:00S 27°14' E 153°15'4 6.6
2018-Jul-16 21:21S 27°11' E 153°18'2 6.0
2018-Jul-16 20:57S 27°09' E 153°20'3 6.1
2018-Jul-16 20:30S 27°06' E 153°19'3 5.8
2018-Jul-16 20:00S 27°04' E 153°17'0 0.2
2018-Jul-16 19:08S 27°04' E 153°17'0 0.0
2018-Jul-16 18:59S 27°04' E 153°17'0 0.0
2018-Jul-16 18:24S 27°04' E 153°17'0 0.0
2018-Jul-16 17:28S 27°04' E 153°17'0 0.0
2018-Jul-16 16:57S 27°04' E 153°17'0 0.0
2018-Jul-16 16:29S 27°04' E 153°17'1 2.9
2018-Jul-16 16:00S 27°05' E 153°18'4 8.6
2018-Jul-16 15:30S 27°09' E 153°20'4 8.2
2018-Jul-16 15:00S 27°12' E 153°17'4 7.6
2018-Jul-16 14:30S 27°15' E 153°15'4 7.7
2018-Jul-16 14:00S 27°19' E 153°12'4 7.5
2018-Jul-16 13:30S 27°22' E 153°10'3 6.7
2018-Jul-16 13:00S 27°25' E 153°09'3 0.2
2018-Jul-15 22:49S 27°22' E 153°10'5 6.8
2018-Jul-15 22:05S 27°18' E 153°13'1 6.7
2018-Jul-15 21:57S 27°17' E 153°14'3 6.8
2018-Jul-15 21:30S 27°14' E 153°16'3 6.6
2018-Jul-15 21:00S 27°12' E 153°18'3 6.2
2018-Jul-15 20:30S 27°09' E 153°20'3 6.1
2018-Jul-15 20:00S 27°06' E 153°19'3 5.7
2018-Jul-15 19:30S 27°04' E 153°17'1 2.1
2018-Jul-15 19:00S 27°03' E 153°16'0 0.0
2018-Jul-15 18:30S 27°03' E 153°16'0 0.0
2018-Jul-15 18:00S 27°03' E 153°16'0 0.0
2018-Jul-15 17:30S 27°03' E 153°16'0 0.0
2018-Jul-15 17:00S 27°03' E 153°16'0 0.0
2018-Jul-15 16:30S 27°03' E 153°16'0 0.1
2018-Jul-15 16:00S 27°03' E 153°16'0 0.0
2018-Jul-15 15:30S 27°03' E 153°16'3 6.6
2018-Jul-15 15:00S 27°06' E 153°19'4 8.4
2018-Jul-15 14:30S 27°10' E 153°19'4 8.0
2018-Jul-15 14:00S 27°13' E 153°17'4 7.6
2018-Jul-15 13:30S 27°16' E 153°14'4 7.7
2018-Jul-15 13:00S 27°19' E 153°12'4 7.5
2018-Jul-15 12:30S 27°23' E 153°10'1 0.1
2018-Jul-14 23:09S 27°22' E 153°10'2 7.3
2018-Jul-14 22:48S 27°20' E 153°12'2 6.7
2018-Jul-14 22:30S 27°18' E 153°12'6 7.1
2018-Jul-14 21:40S 27°12' E 153°13'3 7.7
2018-Jul-14 21:16S 27°09' E 153°15'3 7.5
2018-Jul-14 20:49S 27°07' E 153°17'4 1.3
2018-Jul-14 17:46S 27°03' E 153°16'0 0.0
2018-Jul-14 16:40S 27°03' E 153°16'0 0.0
2018-Jul-14 16:26S 27°03' E 153°16'0 0.1
2018-Jul-14 15:59S 27°03' E 153°16'0 0.1
2018-Jul-14 15:17S 27°03' E 153°16'0 0.0
2018-Jul-14 14:51S 27°03' E 153°16'2 3.6
2018-Jul-14 14:18S 27°04' E 153°18'7 8.0
2018-Jul-14 13:25S 27°11' E 153°18'3 7.9
2018-Jul-14 12:59S 27°14' E 153°16'4 7.9
2018-Jul-14 12:29S 27°17' E 153°13'4 7.7
2018-Jul-14 12:00S 27°21' E 153°11'2 0.1
2018-Jul-13 22:36S 27°19' E 153°12'1 6.7
2018-Jul-13 22:27S 27°18' E 153°12'3 6.5
2018-Jul-13 22:00S 27°15' E 153°13'3 6.9
2018-Jul-13 21:30S 27°11' E 153°13'4 7.8
2018-Jul-13 21:00S 27°08' E 153°16'4 7.5
2018-Jul-13 20:28S 27°05' E 153°18'2 3.0
2018-Jul-13 19:57S 27°04' E 153°17'0 0.0
2018-Jul-13 19:28S 27°04' E 153°17'0 0.0
2018-Jul-13 18:03S 27°04' E 153°17'0 0.1
2018-Jul-13 17:48S 27°04' E 153°17'0 0.0
2018-Jul-13 17:25S 27°04' E 153°17'0 0.0
2018-Jul-13 17:00S 27°04' E 153°17'0 0.1
2018-Jul-13 16:29S 27°04' E 153°17'0 0.1
2018-Jul-13 15:49S 27°04' E 153°17'0 0.2
2018-Jul-13 15:29S 27°04' E 153°17'0 0.2
2018-Jul-13 15:00S 27°03' E 153°17'7 7.4
2018-Jul-13 14:00S 27°11' E 153°19'4 8.7
2018-Jul-13 13:30S 27°14' E 153°16'4 8.4
2018-Jul-13 13:00S 27°18' E 153°13'4 8.2
2018-Jul-13 12:30S 27°21' E 153°11'4 7.6
2018-Jul-13 12:00S 27°25' E 153°09'6 6.3
2018-Jul-13 11:07S 27°27' E 153°03'0 0.0
2018-Jul-12 21:54S 27°27' E 153°03'3 5.8
2018-Jul-12 21:25S 27°27' E 153°06'6 7.2
2018-Jul-12 20:38S 27°22' E 153°10'2 7.3
2018-Jul-12 20:21S 27°20' E 153°11'3 7.0
2018-Jul-12 19:54S 27°18' E 153°13'3 6.8
2018-Jul-12 19:30S 27°15' E 153°15'4 6.9
2018-Jul-12 18:53S 27°12' E 153°17'3 6.7
2018-Jul-12 18:28S 27°10' E 153°19'3 6.5
2018-Jul-12 17:59S 27°07' E 153°19'3 6.2
2018-Jul-12 17:30S 27°04' E 153°17'1 0.7
2018-Jul-12 16:41S 27°04' E 153°17'0 0.0
2018-Jul-12 16:28S 27°04' E 153°17'0 0.0
2018-Jul-12 16:00S 27°04' E 153°17'0 0.0
2018-Jul-12 15:30S 27°04' E 153°17'0 0.1
2018-Jul-12 15:00S 27°04' E 153°17'0 0.0
2018-Jul-12 12:52S 27°04' E 153°17'1 2.6
2018-Jul-12 12:30S 27°04' E 153°18'4 8.5
2018-Jul-12 12:00S 27°08' E 153°20'4 8.2
2018-Jul-12 11:30S 27°12' E 153°18'4 7.8
2018-Jul-12 11:00S 27°15' E 153°15'4 7.8
2018-Jul-12 10:30S 27°18' E 153°12'4 7.7
2018-Jul-12 10:00S 27°22' E 153°11'3 5.2
2018-Jul-12 09:30S 27°24' E 153°09'0 0.0
2018-Jul-11 19:24S 27°24' E 153°09'3 7.0
2018-Jul-11 19:00S 27°22' E 153°10'4 6.9
2018-Jul-11 18:29S 27°19' E 153°12'3 6.8
2018-Jul-11 18:00S 27°16' E 153°14'3 6.6
2018-Jul-11 17:29S 27°13' E 153°16'4 6.4
2018-Jul-11 16:56S 27°10' E 153°19'2 5.4
2018-Jul-11 16:30S 27°08' E 153°20'3 5.7
2018-Jul-11 15:58S 27°05' E 153°19'2 1.7
2018-Jul-11 14:41S 27°04' E 153°17'0 0.0
2018-Jul-11 14:26S 27°04' E 153°17'0 0.0
2018-Jul-11 13:49S 27°04' E 153°17'0 0.0
2018-Jul-11 12:21S 27°04' E 153°17'0 0.6
2018-Jul-11 12:00S 27°04' E 153°17'4 7.6
2018-Jul-11 11:27S 27°07' E 153°19'4 8.2
2018-Jul-11 11:00S 27°11' E 153°19'4 8.0
2018-Jul-11 10:30S 27°14' E 153°16'4 7.9
2018-Jul-11 10:00S 27°17' E 153°13'4 7.8
2018-Jul-11 09:30S 27°21' E 153°11'4 7.5
2018-Jul-11 09:00S 27°24' E 153°09'0 0.0
2018-Jul-10 20:14S 27°24' E 153°09'2 7.1
2018-Jul-10 20:00S 27°22' E 153°10'4 7.0
2018-Jul-10 19:24S 27°19' E 153°12'3 7.0
2018-Jul-10 19:00S 27°17' E 153°14'3 6.9
2018-Jul-10 18:30S 27°14' E 153°16'5 7.1
2018-Jul-10 17:46S 27°09' E 153°20'2 7.2
2018-Jul-10 17:29S 27°07' E 153°19'3 6.8
2018-Jul-10 17:00S 27°04' E 153°18'1 0.2
2018-Jul-10 12:46S 27°04' E 153°17'0 0.5
2018-Jul-10 12:30S 27°04' E 153°17'5 9.3
2018-Jul-10 12:00S 27°08' E 153°19'4 8.7
2018-Jul-10 11:30S 27°12' E 153°18'4 8.4
2018-Jul-10 11:00S 27°15' E 153°15'4 8.3
2018-Jul-10 10:29S 27°19' E 153°12'4 8.1
2018-Jul-10 10:00S 27°22' E 153°10'8 0.6
2018-Jul-09 19:37S 27°27' E 153°03'0 0.0
2018-Jul-09 19:28S 27°27' E 153°03'0 0.0
2018-Jul-09 17:03S 27°27' E 153°03'0 0.0
2018-Jul-09 17:00S 27°27' E 153°03'0 0.0
2018-Jul-09 16:30S 27°27' E 153°03'0 0.0
2018-Jul-09 15:52S 27°27' E 153°03'0 0.0
2018-Jul-09 15:30S 27°27' E 153°03'0 0.0
2018-Jul-09 15:00S 27°27' E 153°03'3 0.4
2018-Jul-09 08:31S 27°27' E 153°06'3 7.3
2018-Jul-09 08:04S 27°24' E 153°09'1 7.6
2018-Jul-09 07:59S 27°24' E 153°09'3 7.0
2018-Jul-09 07:30S 27°21' E 153°11'3 6.7
2018-Jul-09 07:00S 27°18' E 153°12'3 6.8
2018-Jul-09 06:30S 27°14' E 153°13'3 6.8
2018-Jul-09 06:00S 27°11' E 153°13'5 7.7
2018-Jul-09 05:21S 27°07' E 153°17'4 0.7
2018-Jul-08 23:54S 27°03' E 153°17'3 7.2
2018-Jul-08 23:28S 27°06' E 153°17'4 9.2
2018-Jul-08 23:00S 27°10' E 153°15'4 8.3
2018-Jul-08 22:30S 27°14' E 153°13'4 8.5
2018-Jul-08 22:00S 27°18' E 153°12'4 8.3
2018-Jul-08 21:28S 27°22' E 153°10'5 0.2
2018-Jul-08 02:53S 27°18' E 153°12'3 6.8
2018-Jul-08 02:30S 27°15' E 153°13'3 6.9
2018-Jul-08 02:00S 27°12' E 153°13'3 6.6
2018-Jul-08 01:30S 27°09' E 153°15'  
Track history (hours):
 
Tides and Currents Weather Stations Pressure Air Temp Water Temp Dewpoint Dewpoint Depression Visibility Wind Speed Wind Dir Waves Ship Positions

John Oxley 2

Last reported at 2018-Jul-18 00:09 UTC. Time now 2018-Jul-18 02:22 UTC.
Position S 27°19' E 153°12'.

Length 79 m.

MMSI: 503774000.

Date/timePositionNaut miles runAvg speedWind from/ knotsBaromVisibWave heightAir tempDewpointWater temp
2018-Jul-18 00:09S 27°19' E 153°12'2 6.6
2018-Jul-17 23:55S 27°17' E 153°12'3 6.9
2018-Jul-17 23:30S 27°14' E 153°13'3 6.7
2018-Jul-17 23:00S 27°11' E 153°14'3 6.9
2018-Jul-17 22:30S 27°08' E 153°16'4 6.3
2018-Jul-17 21:54S 27°05' E 153°18'3 6.2
2018-Jul-17 21:29S 27°03' E 153°16'0 0.3
2018-Jul-17 21:00S 27°03' E 153°16'0 0.0
2018-Jul-17 20:31S 27°03' E 153°16'0 0.0
2018-Jul-17 19:59S 27°03' E 153°16'0 0.0
2018-Jul-17 19:30S 27°03' E 153°16'0 0.0
2018-Jul-17 19:00S 27°03' E 153°16'0 0.0
2018-Jul-17 18:31S 27°03' E 153°16'0 0.0
2018-Jul-17 18:01S 27°03' E 153°16'3 6.0
2018-Jul-17 17:30S 27°05' E 153°18'5 9.1
2018-Jul-17 17:00S 27°10' E 153°20'4 8.4
2018-Jul-17 16:30S 27°13' E 153°17'4 7.7
2018-Jul-17 16:00S 27°16' E 153°15'4 7.5
2018-Jul-17 15:30S 27°19' E 153°12'4 7.3
2018-Jul-17 15:00S 27°22' E 153°10'5 1.0
2018-Jul-17 09:33S 27°27' E 153°06'3 7.7
2018-Jul-17 09:11S 27°27' E 153°03'1 1.4
2018-Jul-17 08:49S 27°27' E 153°03'0 0.0
2018-Jul-17 08:25S 27°27' E 153°03'0 0.0
2018-Jul-17 07:38S 27°27' E 153°03'0 0.0
2018-Jul-17 07:29S 27°27' E 153°03'7 0.9
2018-Jul-16 23:30S 27°23' E 153°09'7 6.8
2018-Jul-16 22:29S 27°17' E 153°13'3 6.9
2018-Jul-16 22:00S 27°14' E 153°15'4 6.6
2018-Jul-16 21:21S 27°11' E 153°18'2 6.0
2018-Jul-16 20:57S 27°09' E 153°20'3 6.1
2018-Jul-16 20:30S 27°06' E 153°19'3 5.8
2018-Jul-16 20:00S 27°04' E 153°17'0 0.2
2018-Jul-16 19:08S 27°04' E 153°17'0 0.0
2018-Jul-16 18:59S 27°04' E 153°17'0 0.0
2018-Jul-16 18:24S 27°04' E 153°17'0 0.0
2018-Jul-16 17:28S 27°04' E 153°17'0 0.0
2018-Jul-16 16:57S 27°04' E 153°17'0 0.0
2018-Jul-16 16:29S 27°04' E 153°17'1 2.9
2018-Jul-16 16:00S 27°05' E 153°18'4 8.6
2018-Jul-16 15:30S 27°09' E 153°20'4 8.2
2018-Jul-16 15:00S 27°12' E 153°17'4 7.6
2018-Jul-16 14:30S 27°15' E 153°15'4 7.7
2018-Jul-16 14:00S 27°19' E 153°12'4 7.5
2018-Jul-16 13:30S 27°22' E 153°10'3 6.7
2018-Jul-16 13:00S 27°25' E 153°09'3 0.2
2018-Jul-15 22:49S 27°22' E 153°10'5 6.8
2018-Jul-15 22:05S 27°18' E 153°13'1 6.7
2018-Jul-15 21:57S 27°17' E 153°14'3 6.8
2018-Jul-15 21:30S 27°14' E 153°16'3 6.6
2018-Jul-15 21:00S 27°12' E 153°18'3 6.2
2018-Jul-15 20:30S 27°09' E 153°20'3 6.1
2018-Jul-15 20:00S 27°06' E 153°19'3 5.7
2018-Jul-15 19:30S 27°04' E 153°17'1 2.1
2018-Jul-15 19:00S 27°03' E 153°16'0 0.0
2018-Jul-15 18:30S 27°03' E 153°16'0 0.0
2018-Jul-15 18:00S 27°03' E 153°16'0 0.0
2018-Jul-15 17:30S 27°03' E 153°16'0 0.0
2018-Jul-15 17:00S 27°03' E 153°16'0 0.0
2018-Jul-15 16:30S 27°03' E 153°16'0 0.1
2018-Jul-15 16:00S 27°03' E 153°16'0 0.0
2018-Jul-15 15:30S 27°03' E 153°16'3 6.6
2018-Jul-15 15:00S 27°06' E 153°19'4 8.4
2018-Jul-15 14:30S 27°10' E 153°19'4 8.0
2018-Jul-15 14:00S 27°13' E 153°17'4 7.6
2018-Jul-15 13:30S 27°16' E 153°14'4 7.7
2018-Jul-15 13:00S 27°19' E 153°12'4 7.5
2018-Jul-15 12:30S 27°23' E 153°10'1 0.1
2018-Jul-14 23:09S 27°22' E 153°10'2 7.3
2018-Jul-14 22:48S 27°20' E 153°12'2 6.7
2018-Jul-14 22:30S 27°18' E 153°12'6 7.1
2018-Jul-14 21:40S 27°12' E 153°13'3 7.7
2018-Jul-14 21:16S 27°09' E 153°15'3 7.5
2018-Jul-14 20:49S 27°07' E 153°17'4 1.3
2018-Jul-14 17:46S 27°03' E 153°16'0 0.0
2018-Jul-14 16:40S 27°03' E 153°16'0 0.0
2018-Jul-14 16:26S 27°03' E 153°16'0 0.1
2018-Jul-14 15:59S 27°03' E 153°16'0 0.1
2018-Jul-14 15:17S 27°03' E 153°16'0 0.0
2018-Jul-14 14:51S 27°03' E 153°16'2 3.6
2018-Jul-14 14:18S 27°04' E 153°18'7 8.0
2018-Jul-14 13:25S 27°11' E 153°18'3 7.9
2018-Jul-14 12:59S 27°14' E 153°16'4 7.9
2018-Jul-14 12:29S 27°17' E 153°13'4 7.7
2018-Jul-14 12:00S 27°21' E 153°11'2 0.1
2018-Jul-13 22:36S 27°19' E 153°12'1 6.7
2018-Jul-13 22:27S 27°18' E 153°12'3 6.5
2018-Jul-13 22:00S 27°15' E 153°13'3 6.9
2018-Jul-13 21:30S 27°11' E 153°13'4 7.8
2018-Jul-13 21:00S 27°08' E 153°16'4 7.5
2018-Jul-13 20:28S 27°05' E 153°18'2 3.0
2018-Jul-13 19:57S 27°04' E 153°17'0 0.0
2018-Jul-13 19:28S 27°04' E 153°17'0 0.0
2018-Jul-13 18:03S 27°04' E 153°17'0 0.1
2018-Jul-13 17:48S 27°04' E 153°17'0 0.0
2018-Jul-13 17:25S 27°04' E 153°17'0 0.0
2018-Jul-13 17:00S 27°04' E 153°17'0 0.1
2018-Jul-13 16:29S 27°04' E 153°17'0 0.1
2018-Jul-13 15:49S 27°04' E 153°17'0 0.2
2018-Jul-13 15:29S 27°04' E 153°17'0 0.2
2018-Jul-13 15:00S 27°03' E 153°17'7 7.4
2018-Jul-13 14:00S 27°11' E 153°19'4 8.7
2018-Jul-13 13:30S 27°14' E 153°16'4 8.4
2018-Jul-13 13:00S 27°18' E 153°13'4 8.2
2018-Jul-13 12:30S 27°21' E 153°11'4 7.6
2018-Jul-13 12:00S 27°25' E 153°09'6 6.3
2018-Jul-13 11:07S 27°27' E 153°03'0 0.0
2018-Jul-12 21:54S 27°27' E 153°03'3 5.8
2018-Jul-12 21:25S 27°27' E 153°06'6 7.2
2018-Jul-12 20:38S 27°22' E 153°10'2 7.3
2018-Jul-12 20:21S 27°20' E 153°11'3 7.0
2018-Jul-12 19:54S 27°18' E 153°13'3 6.8
2018-Jul-12 19:30S 27°15' E 153°15'4 6.9
2018-Jul-12 18:53S 27°12' E 153°17'3 6.7
2018-Jul-12 18:28S 27°10' E 153°19'3 6.5
2018-Jul-12 17:59S 27°07' E 153°19'3 6.2
2018-Jul-12 17:30S 27°04' E 153°17'1 0.7
2018-Jul-12 16:41S 27°04' E 153°17'0 0.0
2018-Jul-12 16:28S 27°04' E 153°17'0 0.0
2018-Jul-12 16:00S 27°04' E 153°17'0 0.0
2018-Jul-12 15:30S 27°04' E 153°17'0 0.1
2018-Jul-12 15:00S 27°04' E 153°17'0 0.0
2018-Jul-12 12:52S 27°04' E 153°17'1 2.6
2018-Jul-12 12:30S 27°04' E 153°18'4 8.5
2018-Jul-12 12:00S 27°08' E 153°20'4 8.2
2018-Jul-12 11:30S 27°12' E 153°18'4 7.8
2018-Jul-12 11:00S 27°15' E 153°15'4 7.8
2018-Jul-12 10:30S 27°18' E 153°12'4 7.7
2018-Jul-12 10:00S 27°22' E 153°11'3 5.2
2018-Jul-12 09:30S 27°24' E 153°09'0 0.0
2018-Jul-11 19:24S 27°24' E 153°09'3 7.0
2018-Jul-11 19:00S 27°22' E 153°10'4 6.9
2018-Jul-11 18:29S 27°19' E 153°12'3 6.8
2018-Jul-11 18:00S 27°16' E 153°14'3 6.6
2018-Jul-11 17:29S 27°13' E 153°16'4 6.4
2018-Jul-11 16:56S 27°10' E 153°19'2 5.4
2018-Jul-11 16:30S 27°08' E 153°20'3 5.7
2018-Jul-11 15:58S 27°05' E 153°19'2 1.7
2018-Jul-11 14:41S 27°04' E 153°17'0 0.0
2018-Jul-11 14:26S 27°04' E 153°17'0 0.0
2018-Jul-11 13:49S 27°04' E 153°17'0 0.0
2018-Jul-11 12:21S 27°04' E 153°17'0 0.6
2018-Jul-11 12:00S 27°04' E 153°17'4 7.6
2018-Jul-11 11:27S 27°07' E 153°19'4 8.2
2018-Jul-11 11:00S 27°11' E 153°19'4 8.0
2018-Jul-11 10:30S 27°14' E 153°16'4 7.9
2018-Jul-11 10:00S 27°17' E 153°13'4 7.8
2018-Jul-11 09:30S 27°21' E 153°11'4 7.5
2018-Jul-11 09:00S 27°24' E 153°09'0 0.0
2018-Jul-10 20:14S 27°24' E 153°09'2 7.1
2018-Jul-10 20:00S 27°22' E 153°10'4 7.0
2018-Jul-10 19:24S 27°19' E 153°12'3 7.0
2018-Jul-10 19:00S 27°17' E 153°14'3 6.9
2018-Jul-10 18:30S 27°14' E 153°16'5 7.1
2018-Jul-10 17:46S 27°09' E 153°20'2 7.2
2018-Jul-10 17:29S 27°07' E 153°19'3 6.8
2018-Jul-10 17:00S 27°04' E 153°18'1 0.2
2018-Jul-10 12:46S 27°04' E 153°17'0 0.5
2018-Jul-10 12:30S 27°04' E 153°17'5 9.3
2018-Jul-10 12:00S 27°08' E 153°19'4 8.7
2018-Jul-10 11:30S 27°12' E 153°18'4 8.4
2018-Jul-10 11:00S 27°15' E 153°15'4 8.3
2018-Jul-10 10:29S 27°19' E 153°12'4 8.1
2018-Jul-10 10:00S 27°22' E 153°10'8 0.6
2018-Jul-09 19:37S 27°27' E 153°03'0 0.0
2018-Jul-09 19:28S 27°27' E 153°03'0 0.0
2018-Jul-09 17:03S 27°27' E 153°03'0 0.0
2018-Jul-09 17:00S 27°27' E 153°03'0 0.0
2018-Jul-09 16:30S 27°27' E 153°03'0 0.0
2018-Jul-09 15:52S 27°27' E 153°03'0 0.0
2018-Jul-09 15:30S 27°27' E 153°03'0 0.0
2018-Jul-09 15:00S 27°27' E 153°03'3 0.4
2018-Jul-09 08:31S 27°27' E 153°06'3 7.3
2018-Jul-09 08:04S 27°24' E 153°09'1 7.6
2018-Jul-09 07:59S 27°24' E 153°09'3 7.0
2018-Jul-09 07:30S 27°21' E 153°11'3 6.7
2018-Jul-09 07:00S 27°18' E 153°12'3 6.8
2018-Jul-09 06:30S 27°14' E 153°13'3 6.8
2018-Jul-09 06:00S 27°11' E 153°13'5 7.7
2018-Jul-09 05:21S 27°07' E 153°17'4 0.7
2018-Jul-08 23:54S 27°03' E 153°17'3 7.2
2018-Jul-08 23:28S 27°06' E 153°17'4 9.2
2018-Jul-08 23:00S 27°10' E 153°15'4 8.3
2018-Jul-08 22:30S 27°14' E 153°13'4 8.5
2018-Jul-08 22:00S 27°18' E 153°12'4 8.3
2018-Jul-08 21:28S 27°22' E 153°10'5 0.2
2018-Jul-08 02:53S 27°18' E 153°12'3 6.8
2018-Jul-08 02:30S 27°15' E 153°13'3 6.9
2018-Jul-08 02:00S 27°12' E 153°13'3 6.6
2018-Jul-08 01:30S 27°09' E 153°15'  

Dump ship's entire track history